• Join FlightAware (Why Join?)
  • Login
  • US Flag 
Gobble Gobble! 
03:10PM EST


 

Airport Tracker/Info


-or-


 

Live Flight TrackerFlight Track Log ✈ ASQ4283 ✈ 26-Jun-2013 ✈ KMLI - KORD

Flight Track Log - Related Links

Times and Time Zones

All times are in EDT time to prevent confusion due to time zone crossing. See the ASQ4283 flight status page for this flight to view local times or setup timezone preferences in your user account.

Time Position Orientation Groundspeed Altitude Reporting Facility
EDT Latitude Longitude Course Direction KTS MPH feet Rate Location/Type
08:48PM 41.3931 -90.4744 93° East 268 308 5,600  Level Chicago Center
08:49PM 41.3967 -90.3475 88° East 288 331 8,100 1,980 Climbing Chicago Center
08:50PM 41.4019 -90.2369 86° East 296 341 9,800 1,140 Climbing Chicago Center
08:51PM 41.4333 -90.0372 90° East  Level FlightAware Approximate
08:51PM 41.4078 -90.1136 86° East 326 375 10,500  Level Chicago Center
08:52PM 41.4334 -89.9283 90° East  Level FlightAware Approximate
08:53PM 41.4147 -89.9756 86° East 364 419 11,400  Level Chicago Center
08:54PM 41.4211 -89.8333 87° East 380 437 12,300 720 Climbing Chicago Center
08:55PM 41.4264 -89.6861 87° East 392 451 13,000 300 Climbing Chicago Center
08:56PM 41.4378 -89.5036 85° East 410 472 13,000  Level Chicago Center
08:57PM 41.4528 -89.3508 82° East 413 475 13,000  Level Chicago Center
08:58PM 41.4672 -89.1994 83° East 412 474 13,000 -300 Level Chicago Center
08:59PM 41.4794 -89.0519 84° East 404 465 12,500 -600 Descending Chicago Center
09:00PM 41.4936 -88.9056 83° East 401 461 11,800 -720 Descending Chicago Center
09:01PM 41.5067 -88.7625 83° East 394 453 11,100 -420 Descending Chicago Center
09:02PM 41.5500 -88.6106 69° East 371 427 11,000 -60 Descending Chicago Center
09:03PM 41.5992 -88.4886 62° Northeast 372 428 11,000 -180 Level Chicago Center
09:04PM 41.6589 -88.3806 53° Northeast 359 413 10,700 -540 Descending Chicago Center
09:05PM 41.7219 -88.2728 52° Northeast 365 420 10,000 -360 Descending Chicago Center
09:06PM 41.7844 -88.1656 52° Northeast 363 418 10,000  Level Chicago Center
09:07PM 41.8436 -88.0614 53° Northeast 353 406 10,000 -60 Level Chicago Center
09:08PM 41.8719 -87.9131 76° East 343 395 9,900 -720 Descending Chicago Center
09:09PM 41.8825 -87.8111 82° East 287 330 8,600 -1,500 Descending Chicago Center
09:10PM 41.8836 -87.7081 89° East 279 321 6,900 -1,620 Descending Chicago Center
09:11PM 41.8836 -87.6064 90° East 275 316 5,300 -960 Descending Chicago Center
09:12PM 41.8839 -87.5083 90° East 269 310 5,000 -180 Descending Chicago Center
09:13PM 41.8856 -87.4053 89° East 272 313 5,000  Level Chicago Center
09:14PM 41.9558 -87.3975 North 243 280 5,000  Level Chicago Center
09:15PM 41.9683 -87.4736 282° West 220 253 5,000  Level Chicago Center
09:16PM 41.9689 -87.5494 271° West 210 242 5,000 -300 Level Chicago Center
09:17PM 41.9686 -87.6192 270° West 195 224 4,500 -540 Descending Chicago Center